sensor_id;sensor_type;location;lat;lon;timestamp;P1;durP1;ratioP1;P2;durP2;ratioP2
58685;SDS011;44465;53.206;-6.106;2023-07-02T00:01:31;4.57;;;2.83;;
58685;SDS011;44465;53.206;-6.106;2023-07-02T00:03:56;4.38;;;2.70;;
58685;SDS011;44465;53.206;-6.106;2023-07-02T00:06:21;6.05;;;2.33;;
58685;SDS011;44465;53.206;-6.106;2023-07-02T00:08:47;3.65;;;2.22;;
58685;SDS011;44465;53.206;-6.106;2023-07-02T00:11:13;4.70;;;2.60;;
58685;SDS011;44465;53.206;-6.106;2023-07-02T00:13:40;3.70;;;2.28;;
58685;SDS011;44465;53.206;-6.106;2023-07-02T00:16:06;5.20;;;2.47;;
58685;SDS011;44465;53.206;-6.106;2023-07-02T00:18:31;4.72;;;2.67;;
58685;SDS011;44465;53.206;-6.106;2023-07-02T00:21:00;4.65;;;2.83;;
58685;SDS011;44465;53.206;-6.106;2023-07-02T00:23:28;4.03;;;2.28;;
58685;SDS011;44465;53.206;-6.106;2023-07-02T00:25:54;4.45;;;2.60;;
58685;SDS011;44465;53.206;-6.106;2023-07-02T00:28:20;4.60;;;2.30;;
58685;SDS011;44465;53.206;-6.106;2023-07-02T00:30:45;4.03;;;2.30;;
58685;SDS011;44465;53.206;-6.106;2023-07-02T00:33:11;4.15;;;2.63;;
58685;SDS011;44465;53.206;-6.106;2023-07-02T00:35:36;4.32;;;2.47;;
58685;SDS011;44465;53.206;-6.106;2023-07-02T00:38:02;4.65;;;2.78;;
58685;SDS011;44465;53.206;-6.106;2023-07-02T00:40:28;3.80;;;2.35;;
58685;SDS011;44465;53.206;-6.106;2023-07-02T00:42:53;4.57;;;2.40;;
58685;SDS011;44465;53.206;-6.106;2023-07-02T00:45:19;4.90;;;2.20;;
58685;SDS011;44465;53.206;-6.106;2023-07-02T00:47:44;5.45;;;2.60;;
58685;SDS011;44465;53.206;-6.106;2023-07-02T00:50:10;3.50;;;2.60;;
58685;SDS011;44465;53.206;-6.106;2023-07-02T00:52:36;6.13;;;2.88;;
58685;SDS011;44465;53.206;-6.106;2023-07-02T00:55:03;3.83;;;2.30;;
58685;SDS011;44465;53.206;-6.106;2023-07-02T00:57:29;4.45;;;2.22;;
58685;SDS011;44465;53.206;-6.106;2023-07-02T00:59:56;4.90;;;2.30;;
58685;SDS011;44465;53.206;-6.106;2023-07-02T01:02:22;6.22;;;2.75;;
58685;SDS011;44465;53.206;-6.106;2023-07-02T01:04:50;5.05;;;2.50;;
58685;SDS011;44465;53.206;-6.106;2023-07-02T01:07:23;5.57;;;2.60;;
58685;SDS011;44465;53.206;-6.106;2023-07-02T01:09:49;3.78;;;2.28;;
58685;SDS011;44465;53.206;-6.106;2023-07-02T01:12:16;4.15;;;2.42;;
58685;SDS011;44465;53.206;-6.106;2023-07-02T01:14:44;3.57;;;2.10;;
58685;SDS011;44465;53.206;-6.106;2023-07-02T01:17:17;3.42;;;2.08;;
58685;SDS011;44465;53.206;-6.106;2023-07-02T01:19:55;4.97;;;2.67;;
58685;SDS011;44465;53.206;-6.106;2023-07-02T01:22:25;5.00;;;2.30;;
58685;SDS011;44465;53.206;-6.106;2023-07-02T01:24:52;4.00;;;2.28;;
58685;SDS011;44465;53.206;-6.106;2023-07-02T01:27:18;5.15;;;2.40;;
58685;SDS011;44465;53.206;-6.106;2023-07-02T01:29:45;4.72;;;2.92;;
58685;SDS011;44465;53.206;-6.106;2023-07-02T01:32:12;3.95;;;2.72;;
58685;SDS011;44465;53.206;-6.106;2023-07-02T01:34:39;4.15;;;2.30;;
58685;SDS011;44465;53.206;-6.106;2023-07-02T01:37:05;4.80;;;2.35;;
58685;SDS011;44465;53.206;-6.106;2023-07-02T01:39:31;3.85;;;2.28;;
58685;SDS011;44465;53.206;-6.106;2023-07-02T01:42:10;3.88;;;2.40;;
58685;SDS011;44465;53.206;-6.106;2023-07-02T01:44:41;4.05;;;2.05;;
58685;SDS011;44465;53.206;-6.106;2023-07-02T01:47:07;3.10;;;2.40;;
58685;SDS011;44465;53.206;-6.106;2023-07-02T01:49:33;4.43;;;2.15;;
58685;SDS011;44465;53.206;-6.106;2023-07-02T01:51:59;4.55;;;2.60;;
58685;SDS011;44465;53.206;-6.106;2023-07-02T01:54:26;5.88;;;2.35;;
58685;SDS011;44465;53.206;-6.106;2023-07-02T01:56:53;3.33;;;2.10;;
58685;SDS011;44465;53.206;-6.106;2023-07-02T01:59:19;5.07;;;2.38;;
58685;SDS011;44465;53.206;-6.106;2023-07-02T02:01:45;4.35;;;2.30;;
58685;SDS011;44465;53.206;-6.106;2023-07-02T02:04:11;4.28;;;2.50;;
58685;SDS011;44465;53.206;-6.106;2023-07-02T02:06:37;4.68;;;2.25;;
58685;SDS011;44465;53.206;-6.106;2023-07-02T02:09:04;3.75;;;2.20;;
58685;SDS011;44465;53.206;-6.106;2023-07-02T02:11:30;3.50;;;2.45;;
58685;SDS011;44465;53.206;-6.106;2023-07-02T02:13:56;4.67;;;2.37;;
58685;SDS011;44465;53.206;-6.106;2023-07-02T02:16:22;3.90;;;2.15;;
58685;SDS011;44465;53.206;-6.106;2023-07-02T02:18:48;3.95;;;2.33;;
58685;SDS011;44465;53.206;-6.106;2023-07-02T02:21:17;3.78;;;2.13;;
58685;SDS011;44465;53.206;-6.106;2023-07-02T02:23:43;3.90;;;2.08;;
58685;SDS011;44465;53.206;-6.106;2023-07-02T02:26:09;5.00;;;2.30;;
58685;SDS011;44465;53.206;-6.106;2023-07-02T02:28:34;3.92;;;2.17;;
58685;SDS011;44465;53.206;-6.106;2023-07-02T02:31:00;4.38;;;2.28;;
58685;SDS011;44465;53.206;-6.106;2023-07-02T02:33:26;5.18;;;2.38;;
58685;SDS011;44465;53.206;-6.106;2023-07-02T02:35:52;3.55;;;2.03;;
58685;SDS011;44465;53.206;-6.106;2023-07-02T02:38:17;3.55;;;2.15;;
58685;SDS011;44465;53.206;-6.106;2023-07-02T02:40:43;4.30;;;2.53;;
58685;SDS011;44465;53.206;-6.106;2023-07-02T02:43:12;4.00;;;2.65;;
58685;SDS011;44465;53.206;-6.106;2023-07-02T02:45:38;4.47;;;2.17;;
58685;SDS011;44465;53.206;-6.106;2023-07-02T02:48:04;3.90;;;2.10;;
58685;SDS011;44465;53.206;-6.106;2023-07-02T02:50:29;5.28;;;2.70;;
58685;SDS011;44465;53.206;-6.106;2023-07-02T02:52:55;2.28;;;1.70;;
58685;SDS011;44465;53.206;-6.106;2023-07-02T02:55:20;4.07;;;2.17;;
58685;SDS011;44465;53.206;-6.106;2023-07-02T02:57:46;4.45;;;2.15;;
58685;SDS011;44465;53.206;-6.106;2023-07-02T03:00:11;4.70;;;2.03;;
58685;SDS011;44465;53.206;-6.106;2023-07-02T03:02:38;4.82;;;2.17;;
58685;SDS011;44465;53.206;-6.106;2023-07-02T03:05:04;2.80;;;2.08;;
58685;SDS011;44465;53.206;-6.106;2023-07-02T03:07:31;4.30;;;2.05;;
58685;SDS011;44465;53.206;-6.106;2023-07-02T03:09:57;2.95;;;1.85;;
58685;SDS011;44465;53.206;-6.106;2023-07-02T03:12:25;3.78;;;2.20;;
58685;SDS011;44465;53.206;-6.106;2023-07-02T03:14:51;4.20;;;2.35;;
58685;SDS011;44465;53.206;-6.106;2023-07-02T03:17:19;4.80;;;1.92;;
58685;SDS011;44465;53.206;-6.106;2023-07-02T03:19:45;4.57;;;2.35;;
58685;SDS011;44465;53.206;-6.106;2023-07-02T03:22:11;3.33;;;2.00;;
58685;SDS011;44465;53.206;-6.106;2023-07-02T03:24:37;2.95;;;2.20;;
58685;SDS011;44465;53.206;-6.106;2023-07-02T03:27:02;3.60;;;2.22;;
58685;SDS011;44465;53.206;-6.106;2023-07-02T03:29:28;3.85;;;1.90;;
58685;SDS011;44465;53.206;-6.106;2023-07-02T03:31:54;2.72;;;1.90;;
58685;SDS011;44465;53.206;-6.106;2023-07-02T03:34:20;2.75;;;2.13;;
58685;SDS011;44465;53.206;-6.106;2023-07-02T03:36:47;3.70;;;2.05;;
58685;SDS011;44465;53.206;-6.106;2023-07-02T03:39:13;4.35;;;2.05;;
58685;SDS011;44465;53.206;-6.106;2023-07-02T03:41:38;3.72;;;1.92;;
58685;SDS011;44465;53.206;-6.106;2023-07-02T03:44:04;2.67;;;1.80;;
58685;SDS011;44465;53.206;-6.106;2023-07-02T03:46:29;4.38;;;1.80;;
58685;SDS011;44465;53.206;-6.106;2023-07-02T03:48:56;4.70;;;2.40;;
58685;SDS011;44465;53.206;-6.106;2023-07-02T03:51:22;3.83;;;2.00;;
58685;SDS011;44465;53.206;-6.106;2023-07-02T03:53:47;4.18;;;2.10;;
58685;SDS011;44465;53.206;-6.106;2023-07-02T03:56:13;3.92;;;2.08;;
58685;SDS011;44465;53.206;-6.106;2023-07-02T03:58:39;2.80;;;1.60;;
58685;SDS011;44465;53.206;-6.106;2023-07-02T04:01:05;5.57;;;2.22;;
58685;SDS011;44465;53.206;-6.106;2023-07-02T04:03:31;4.07;;;2.13;;
58685;SDS011;44465;53.206;-6.106;2023-07-02T04:05:56;3.70;;;1.75;;
58685;SDS011;44465;53.206;-6.106;2023-07-02T04:08:22;3.80;;;2.28;;
58685;SDS011;44465;53.206;-6.106;2023-07-02T04:10:49;5.40;;;2.00;;
58685;SDS011;44465;53.206;-6.106;2023-07-02T04:13:15;4.32;;;2.15;;
58685;SDS011;44465;53.206;-6.106;2023-07-02T04:15:40;3.17;;;1.80;;
58685;SDS011;44465;53.206;-6.106;2023-07-02T04:18:05;4.53;;;2.17;;
58685;SDS011;44465;53.206;-6.106;2023-07-02T04:20:31;3.40;;;1.88;;
58685;SDS011;44465;53.206;-6.106;2023-07-02T04:22:56;2.67;;;1.55;;
58685;SDS011;44465;53.206;-6.106;2023-07-02T04:25:22;2.47;;;1.60;;
58685;SDS011;44465;53.206;-6.106;2023-07-02T04:27:48;5.15;;;2.00;;
58685;SDS011;44465;53.206;-6.106;2023-07-02T04:30:14;3.85;;;2.05;;
58685;SDS011;44465;53.206;-6.106;2023-07-02T04:32:39;3.90;;;2.15;;
58685;SDS011;44465;53.206;-6.106;2023-07-02T04:35:06;2.35;;;1.90;;
58685;SDS011;44465;53.206;-6.106;2023-07-02T04:37:32;3.77;;;1.93;;
58685;SDS011;44465;53.206;-6.106;2023-07-02T04:39:57;4.55;;;1.80;;
58685;SDS011;44465;53.206;-6.106;2023-07-02T04:42:23;4.03;;;2.25;;
58685;SDS011;44465;53.206;-6.106;2023-07-02T04:44:55;2.83;;;1.77;;
58685;SDS011;44465;53.206;-6.106;2023-07-02T04:47:21;3.25;;;1.83;;
58685;SDS011;44465;53.206;-6.106;2023-07-02T04:49:46;2.40;;;2.05;;
58685;SDS011;44465;53.206;-6.106;2023-07-02T04:52:12;4.35;;;1.83;;
58685;SDS011;44465;53.206;-6.106;2023-07-02T04:54:37;4.10;;;1.58;;
58685;SDS011;44465;53.206;-6.106;2023-07-02T04:57:03;3.17;;;1.67;;
58685;SDS011;44465;53.206;-6.106;2023-07-02T04:59:29;3.80;;;1.92;;
58685;SDS011;44465;53.206;-6.106;2023-07-02T05:01:54;3.40;;;1.95;;
58685;SDS011;44465;53.206;-6.106;2023-07-02T05:04:20;4.03;;;2.00;;
58685;SDS011;44465;53.206;-6.106;2023-07-02T05:06:45;3.72;;;1.83;;
58685;SDS011;44465;53.206;-6.106;2023-07-02T05:09:10;4.90;;;2.33;;
58685;SDS011;44465;53.206;-6.106;2023-07-02T05:11:36;3.50;;;1.73;;
58685;SDS011;44465;53.206;-6.106;2023-07-02T05:14:01;3.20;;;1.70;;
58685;SDS011;44465;53.206;-6.106;2023-07-02T05:16:27;4.22;;;2.08;;
58685;SDS011;44465;53.206;-6.106;2023-07-02T05:18:53;3.17;;;1.80;;
58685;SDS011;44465;53.206;-6.106;2023-07-02T05:21:19;2.35;;;1.85;;
58685;SDS011;44465;53.206;-6.106;2023-07-02T05:23:45;3.90;;;1.75;;
58685;SDS011;44465;53.206;-6.106;2023-07-02T05:26:10;2.72;;;1.92;;
58685;SDS011;44465;53.206;-6.106;2023-07-02T05:28:36;2.33;;;1.42;;
58685;SDS011;44465;53.206;-6.106;2023-07-02T05:31:01;2.78;;;1.75;;
58685;SDS011;44465;53.206;-6.106;2023-07-02T05:33:27;2.88;;;1.85;;
58685;SDS011;44465;53.206;-6.106;2023-07-02T05:35:52;4.57;;;1.80;;
58685;SDS011;44465;53.206;-6.106;2023-07-02T05:38:18;3.90;;;1.83;;
58685;SDS011;44465;53.206;-6.106;2023-07-02T05:40:45;4.05;;;1.77;;
58685;SDS011;44465;53.206;-6.106;2023-07-02T05:43:11;3.13;;;1.63;;
58685;SDS011;44465;53.206;-6.106;2023-07-02T05:45:37;2.65;;;1.83;;
58685;SDS011;44465;53.206;-6.106;2023-07-02T05:48:02;3.67;;;1.83;;
58685;SDS011;44465;53.206;-6.106;2023-07-02T05:50:28;2.15;;;1.55;;
58685;SDS011;44465;53.206;-6.106;2023-07-02T05:52:53;4.03;;;1.95;;
58685;SDS011;44465;53.206;-6.106;2023-07-02T05:55:19;3.13;;;1.50;;
58685;SDS011;44465;53.206;-6.106;2023-07-02T05:57:44;3.60;;;1.50;;
58685;SDS011;44465;53.206;-6.106;2023-07-02T06:00:10;5.22;;;1.85;;
58685;SDS011;44465;53.206;-6.106;2023-07-02T06:02:39;2.67;;;1.60;;
58685;SDS011;44465;53.206;-6.106;2023-07-02T06:05:04;2.97;;;1.40;;
58685;SDS011;44465;53.206;-6.106;2023-07-02T06:07:30;3.95;;;1.75;;
58685;SDS011;44465;53.206;-6.106;2023-07-02T06:09:56;5.40;;;1.65;;
58685;SDS011;44465;53.206;-6.106;2023-07-02T06:12:21;3.42;;;1.67;;
58685;SDS011;44465;53.206;-6.106;2023-07-02T06:14:47;2.35;;;1.38;;
58685;SDS011;44465;53.206;-6.106;2023-07-02T06:17:13;3.88;;;1.80;;
58685;SDS011;44465;53.206;-6.106;2023-07-02T06:19:38;2.35;;;1.40;;
58685;SDS011;44465;53.206;-6.106;2023-07-02T06:22:04;2.83;;;1.50;;
58685;SDS011;44465;53.206;-6.106;2023-07-02T06:24:30;3.10;;;1.65;;
58685;SDS011;44465;53.206;-6.106;2023-07-02T06:26:56;2.33;;;1.38;;
58685;SDS011;44465;53.206;-6.106;2023-07-02T06:29:22;4.00;;;1.60;;
58685;SDS011;44465;53.206;-6.106;2023-07-02T06:31:48;4.53;;;1.73;;
58685;SDS011;44465;53.206;-6.106;2023-07-02T06:34:14;1.95;;;1.30;;
58685;SDS011;44465;53.206;-6.106;2023-07-02T06:36:40;3.38;;;1.73;;
58685;SDS011;44465;53.206;-6.106;2023-07-02T06:39:05;3.25;;;1.48;;
58685;SDS011;44465;53.206;-6.106;2023-07-02T06:41:31;4.20;;;1.27;;
58685;SDS011;44465;53.206;-6.106;2023-07-02T06:43:56;4.80;;;1.80;;
58685;SDS011;44465;53.206;-6.106;2023-07-02T06:46:22;2.17;;;1.60;;
58685;SDS011;44465;53.206;-6.106;2023-07-02T06:48:48;2.67;;;1.40;;
58685;SDS011;44465;53.206;-6.106;2023-07-02T06:51:13;2.85;;;1.40;;
58685;SDS011;44465;53.206;-6.106;2023-07-02T06:53:42;4.32;;;1.55;;
58685;SDS011;44465;53.206;-6.106;2023-07-02T06:56:09;2.10;;;1.52;;
58685;SDS011;44465;53.206;-6.106;2023-07-02T06:58:34;3.08;;;1.30;;
58685;SDS011;44465;53.206;-6.106;2023-07-02T07:01:00;2.70;;;1.40;;
58685;SDS011;44465;53.206;-6.106;2023-07-02T07:03:26;2.03;;;1.15;;
58685;SDS011;44465;53.206;-6.106;2023-07-02T07:05:52;4.90;;;1.63;;
58685;SDS011;44465;53.206;-6.106;2023-07-02T07:08:18;1.48;;;1.10;;
58685;SDS011;44465;53.206;-6.106;2023-07-02T07:10:43;2.88;;;1.73;;
58685;SDS011;44465;53.206;-6.106;2023-07-02T07:13:10;2.15;;;1.13;;
58685;SDS011;44465;53.206;-6.106;2023-07-02T07:15:38;3.13;;;1.60;;
58685;SDS011;44465;53.206;-6.106;2023-07-02T07:18:04;2.72;;;1.17;;
58685;SDS011;44465;53.206;-6.106;2023-07-02T07:20:30;3.42;;;1.70;;
58685;SDS011;44465;53.206;-6.106;2023-07-02T07:22:56;2.67;;;1.40;;
58685;SDS011;44465;53.206;-6.106;2023-07-02T07:25:22;3.30;;;1.60;;
58685;SDS011;44465;53.206;-6.106;2023-07-02T07:27:48;5.07;;;1.60;;
58685;SDS011;44465;53.206;-6.106;2023-07-02T07:30:14;3.10;;;1.40;;
58685;SDS011;44465;53.206;-6.106;2023-07-02T07:32:40;3.65;;;1.30;;
58685;SDS011;44465;53.206;-6.106;2023-07-02T07:35:06;3.17;;;1.37;;
58685;SDS011;44465;53.206;-6.106;2023-07-02T07:37:32;2.42;;;1.27;;
58685;SDS011;44465;53.206;-6.106;2023-07-02T07:39:58;1.95;;;1.13;;
58685;SDS011;44465;53.206;-6.106;2023-07-02T07:42:23;3.58;;;1.35;;
58685;SDS011;44465;53.206;-6.106;2023-07-02T07:44:49;2.63;;;1.23;;
58685;SDS011;44465;53.206;-6.106;2023-07-02T07:47:15;1.85;;;1.13;;
58685;SDS011;44465;53.206;-6.106;2023-07-02T07:49:41;3.65;;;1.58;;
58685;SDS011;44465;53.206;-6.106;2023-07-02T07:52:06;2.63;;;1.17;;
58685;SDS011;44465;53.206;-6.106;2023-07-02T07:54:32;3.95;;;1.63;;
58685;SDS011;44465;53.206;-6.106;2023-07-02T07:57:00;3.40;;;1.30;;
58685;SDS011;44465;53.206;-6.106;2023-07-02T07:59:26;2.45;;;1.45;;
58685;SDS011;44465;53.206;-6.106;2023-07-02T08:01:52;2.80;;;1.35;;
58685;SDS011;44465;53.206;-6.106;2023-07-02T08:04:17;2.28;;;1.20;;
58685;SDS011;44465;53.206;-6.106;2023-07-02T08:06:43;2.75;;;1.00;;
58685;SDS011;44465;53.206;-6.106;2023-07-02T08:09:08;2.88;;;1.42;;
58685;SDS011;44465;53.206;-6.106;2023-07-02T08:11:35;2.97;;;1.05;;
58685;SDS011;44465;53.206;-6.106;2023-07-02T08:14:00;4.13;;;1.60;;
58685;SDS011;44465;53.206;-6.106;2023-07-02T08:16:25;5.00;;;1.70;;
58685;SDS011;44465;53.206;-6.106;2023-07-02T08:18:51;2.80;;;1.30;;
58685;SDS011;44465;53.206;-6.106;2023-07-02T08:21:16;3.67;;;1.65;;
58685;SDS011;44465;53.206;-6.106;2023-07-02T08:23:42;3.20;;;0.90;;
58685;SDS011;44465;53.206;-6.106;2023-07-02T08:26:09;4.28;;;1.65;;
58685;SDS011;44465;53.206;-6.106;2023-07-02T08:28:36;3.88;;;1.48;;
58685;SDS011;44465;53.206;-6.106;2023-07-02T08:31:03;1.90;;;1.30;;
58685;SDS011;44465;53.206;-6.106;2023-07-02T08:33:29;2.70;;;1.25;;
58685;SDS011;44465;53.206;-6.106;2023-07-02T08:35:55;3.33;;;1.55;;
58685;SDS011;44465;53.206;-6.106;2023-07-02T08:38:20;2.40;;;1.33;;
58685;SDS011;44465;53.206;-6.106;2023-07-02T08:40:46;2.38;;;1.27;;
58685;SDS011;44465;53.206;-6.106;2023-07-02T08:43:13;2.55;;;1.50;;
58685;SDS011;44465;53.206;-6.106;2023-07-02T08:45:40;2.60;;;1.23;;
58685;SDS011;44465;53.206;-6.106;2023-07-02T08:48:06;4.07;;;1.60;;
58685;SDS011;44465;53.206;-6.106;2023-07-02T08:50:31;2.95;;;1.08;;
58685;SDS011;44465;53.206;-6.106;2023-07-02T08:52:57;2.00;;;1.42;;
58685;SDS011;44465;53.206;-6.106;2023-07-02T08:55:22;3.10;;;1.30;;
58685;SDS011;44465;53.206;-6.106;2023-07-02T08:57:55;3.63;;;1.15;;
58685;SDS011;44465;53.206;-6.106;2023-07-02T09:00:28;2.42;;;1.20;;
58685;SDS011;44465;53.206;-6.106;2023-07-02T09:02:56;1.90;;;1.42;;
58685;SDS011;44465;53.206;-6.106;2023-07-02T09:05:21;2.38;;;0.95;;
58685;SDS011;44465;53.206;-6.106;2023-07-02T09:07:47;2.72;;;1.05;;
58685;SDS011;44465;53.206;-6.106;2023-07-02T09:10:29;2.00;;;1.63;;
58685;SDS011;44465;53.206;-6.106;2023-07-02T09:13:05;2.78;;;1.35;;
58685;SDS011;44465;53.206;-6.106;2023-07-02T09:15:38;2.08;;;1.17;;
58685;SDS011;44465;53.206;-6.106;2023-07-02T09:18:17;3.25;;;1.40;;
58685;SDS011;44465;53.206;-6.106;2023-07-02T09:20:44;3.85;;;1.70;;
58685;SDS011;44465;53.206;-6.106;2023-07-02T09:23:10;2.50;;;1.13;;
58685;SDS011;44465;53.206;-6.106;2023-07-02T09:25:37;2.55;;;1.45;;
58685;SDS011;44465;53.206;-6.106;2023-07-02T09:28:13;4.20;;;0.90;;
58685;SDS011;44465;53.206;-6.106;2023-07-02T09:30:50;2.72;;;1.35;;
58685;SDS011;44465;53.206;-6.106;2023-07-02T09:33:16;1.55;;;0.90;;
58685;SDS011;44465;53.206;-6.106;2023-07-02T09:35:41;4.90;;;1.70;;
58685;SDS011;44465;53.206;-6.106;2023-07-02T09:38:07;1.65;;;1.30;;
58685;SDS011;44465;53.206;-6.106;2023-07-02T09:40:33;3.30;;;1.10;;
58685;SDS011;44465;53.206;-6.106;2023-07-02T09:43:00;2.88;;;1.23;;
58685;SDS011;44465;53.206;-6.106;2023-07-02T09:45:25;2.17;;;1.50;;
58685;SDS011;44465;53.206;-6.106;2023-07-02T09:47:51;1.92;;;1.25;;
58685;SDS011;44465;53.206;-6.106;2023-07-02T09:50:20;3.30;;;1.88;;
58685;SDS011;44465;53.206;-6.106;2023-07-02T09:52:47;3.90;;;1.23;;
58685;SDS011;44465;53.206;-6.106;2023-07-02T09:55:14;1.80;;;0.85;;
58685;SDS011;44465;53.206;-6.106;2023-07-02T09:57:40;2.20;;;1.00;;
58685;SDS011;44465;53.206;-6.106;2023-07-02T10:00:08;2.45;;;1.00;;
58685;SDS011;44465;53.206;-6.106;2023-07-02T10:02:36;1.42;;;0.95;;
58685;SDS011;44465;53.206;-6.106;2023-07-02T10:05:01;2.03;;;1.13;;
58685;SDS011;44465;53.206;-6.106;2023-07-02T10:07:28;3.03;;;1.50;;
58685;SDS011;44465;53.206;-6.106;2023-07-02T10:12:24;3.13;;;1.20;;
58685;SDS011;44465;53.206;-6.106;2023-07-02T10:14:51;2.40;;;1.13;;
58685;SDS011;44465;53.206;-6.106;2023-07-02T10:17:28;3.17;;;1.13;;
58685;SDS011;44465;53.206;-6.106;2023-07-02T10:19:56;2.55;;;1.08;;
58685;SDS011;44465;53.206;-6.106;2023-07-02T10:22:23;1.70;;;0.90;;
58685;SDS011;44465;53.206;-6.106;2023-07-02T10:24:56;2.50;;;1.15;;
58685;SDS011;44465;53.206;-6.106;2023-07-02T10:30:00;1.25;;;1.15;;
58685;SDS011;44465;53.206;-6.106;2023-07-02T10:32:29;1.80;;;1.02;;
58685;SDS011;44465;53.206;-6.106;2023-07-02T10:34:55;2.47;;;1.17;;
58685;SDS011;44465;53.206;-6.106;2023-07-02T10:37:21;2.83;;;1.30;;
58685;SDS011;44465;53.206;-6.106;2023-07-02T10:39:46;1.60;;;1.10;;
58685;SDS011;44465;53.206;-6.106;2023-07-02T10:42:12;1.52;;;1.02;;
58685;SDS011;44465;53.206;-6.106;2023-07-02T10:44:50;2.30;;;1.40;;
58685;SDS011;44465;53.206;-6.106;2023-07-02T10:47:17;2.40;;;0.95;;
58685;SDS011;44465;53.206;-6.106;2023-07-02T10:49:44;2.08;;;1.15;;
58685;SDS011;44465;53.206;-6.106;2023-07-02T10:52:09;2.15;;;1.00;;
58685;SDS011;44465;53.206;-6.106;2023-07-02T10:54:42;2.05;;;0.93;;
58685;SDS011;44465;53.206;-6.106;2023-07-02T10:57:09;2.83;;;1.20;;
58685;SDS011;44465;53.206;-6.106;2023-07-02T10:59:37;3.30;;;1.02;;
58685;SDS011;44465;53.206;-6.106;2023-07-02T11:02:02;2.92;;;1.13;;
58685;SDS011;44465;53.206;-6.106;2023-07-02T11:04:29;1.90;;;1.00;;
58685;SDS011;44465;53.206;-6.106;2023-07-02T11:09:21;2.03;;;0.90;;
58685;SDS011;44465;53.206;-6.106;2023-07-02T11:11:54;3.03;;;1.05;;
58685;SDS011;44465;53.206;-6.106;2023-07-02T11:14:27;1.98;;;1.40;;
58685;SDS011;44465;53.206;-6.106;2023-07-02T11:16:54;1.27;;;0.88;;
58685;SDS011;44465;53.206;-6.106;2023-07-02T11:19:20;2.22;;;0.90;;
58685;SDS011;44465;53.206;-6.106;2023-07-02T11:21:52;0.82;;;0.82;;
58685;SDS011;44465;53.206;-6.106;2023-07-02T11:24:27;2.03;;;0.98;;
58685;SDS011;44465;53.206;-6.106;2023-07-02T11:27:05;2.75;;;1.23;;
58685;SDS011;44465;53.206;-6.106;2023-07-02T11:29:32;1.33;;;0.90;;
58685;SDS011;44465;53.206;-6.106;2023-07-02T11:32:05;1.90;;;0.90;;
58685;SDS011;44465;53.206;-6.106;2023-07-02T11:34:31;0.98;;;0.65;;
58685;SDS011;44465;53.206;-6.106;2023-07-02T11:36:57;2.03;;;1.00;;
58685;SDS011;44465;53.206;-6.106;2023-07-02T11:39:23;2.25;;;1.05;;
58685;SDS011;44465;53.206;-6.106;2023-07-02T11:41:49;1.70;;;1.00;;
58685;SDS011;44465;53.206;-6.106;2023-07-02T11:44:15;1.67;;;1.15;;
58685;SDS011;44465;53.206;-6.106;2023-07-02T11:46:41;1.67;;;1.13;;
58685;SDS011;44465;53.206;-6.106;2023-07-02T11:49:07;2.20;;;0.90;;
58685;SDS011;44465;53.206;-6.106;2023-07-02T11:51:34;1.20;;;0.77;;
58685;SDS011;44465;53.206;-6.106;2023-07-02T11:54:02;1.60;;;1.25;;
58685;SDS011;44465;53.206;-6.106;2023-07-02T11:56:28;2.10;;;1.10;;
58685;SDS011;44465;53.206;-6.106;2023-07-02T11:58:54;1.27;;;0.90;;
58685;SDS011;44465;53.206;-6.106;2023-07-02T12:01:19;2.90;;;1.33;;
58685;SDS011;44465;53.206;-6.106;2023-07-02T12:03:44;1.90;;;1.15;;
58685;SDS011;44465;53.206;-6.106;2023-07-02T12:06:10;1.95;;;0.60;;
58685;SDS011;44465;53.206;-6.106;2023-07-02T12:08:36;1.80;;;1.30;;
58685;SDS011;44465;53.206;-6.106;2023-07-02T12:11:01;1.63;;;0.95;;
58685;SDS011;44465;53.206;-6.106;2023-07-02T12:13:27;1.65;;;1.15;;
58685;SDS011;44465;53.206;-6.106;2023-07-02T12:15:52;1.15;;;0.70;;
58685;SDS011;44465;53.206;-6.106;2023-07-02T12:18:18;1.00;;;0.70;;
58685;SDS011;44465;53.206;-6.106;2023-07-02T12:20:43;1.40;;;0.80;;
58685;SDS011;44465;53.206;-6.106;2023-07-02T12:23:09;2.35;;;0.90;;
58685;SDS011;44465;53.206;-6.106;2023-07-02T12:25:36;3.45;;;0.95;;
58685;SDS011;44465;53.206;-6.106;2023-07-02T12:28:03;1.45;;;0.90;;
58685;SDS011;44465;53.206;-6.106;2023-07-02T12:30:29;1.20;;;0.90;;
58685;SDS011;44465;53.206;-6.106;2023-07-02T12:32:55;1.33;;;0.90;;
58685;SDS011;44465;53.206;-6.106;2023-07-02T12:35:20;1.42;;;0.80;;
58685;SDS011;44465;53.206;-6.106;2023-07-02T12:37:46;2.25;;;1.10;;
58685;SDS011;44465;53.206;-6.106;2023-07-02T12:40:16;1.92;;;0.63;;
58685;SDS011;44465;53.206;-6.106;2023-07-02T12:42:42;1.80;;;1.25;;
58685;SDS011;44465;53.206;-6.106;2023-07-02T12:45:09;1.40;;;0.90;;
58685;SDS011;44465;53.206;-6.106;2023-07-02T12:47:36;1.48;;;0.85;;
58685;SDS011;44465;53.206;-6.106;2023-07-02T12:50:03;1.42;;;0.63;;
58685;SDS011;44465;53.206;-6.106;2023-07-02T12:52:29;1.98;;;0.90;;
58685;SDS011;44465;53.206;-6.106;2023-07-02T12:54:55;2.55;;;0.75;;
58685;SDS011;44465;53.206;-6.106;2023-07-02T12:57:20;2.55;;;0.90;;
58685;SDS011;44465;53.206;-6.106;2023-07-02T12:59:46;1.92;;;1.08;;
58685;SDS011;44465;53.206;-6.106;2023-07-02T13:02:11;1.80;;;1.30;;
58685;SDS011;44465;53.206;-6.106;2023-07-02T13:04:38;1.88;;;0.80;;
58685;SDS011;44465;53.206;-6.106;2023-07-02T13:07:04;2.72;;;0.77;;
58685;SDS011;44465;53.206;-6.106;2023-07-02T13:09:29;1.58;;;1.02;;
58685;SDS011;44465;53.206;-6.106;2023-07-02T13:11:55;1.23;;;0.95;;
58685;SDS011;44465;53.206;-6.106;2023-07-02T13:14:20;1.65;;;0.80;;
58685;SDS011;44465;53.206;-6.106;2023-07-02T13:16:46;2.40;;;0.90;;
58685;SDS011;44465;53.206;-6.106;2023-07-02T13:19:12;1.55;;;1.10;;
58685;SDS011;44465;53.206;-6.106;2023-07-02T13:21:38;2.15;;;0.98;;
58685;SDS011;44465;53.206;-6.106;2023-07-02T13:24:03;1.25;;;0.63;;
58685;SDS011;44465;53.206;-6.106;2023-07-02T13:26:29;1.45;;;0.85;;
58685;SDS011;44465;53.206;-6.106;2023-07-02T13:28:55;2.28;;;0.60;;
58685;SDS011;44465;53.206;-6.106;2023-07-02T13:31:20;1.08;;;0.90;;
58685;SDS011;44465;53.206;-6.106;2023-07-02T13:33:45;1.38;;;0.88;;
58685;SDS011;44465;53.206;-6.106;2023-07-02T13:36:11;1.60;;;0.90;;
58685;SDS011;44465;53.206;-6.106;2023-07-02T13:38:37;0.63;;;0.63;;
58685;SDS011;44465;53.206;-6.106;2023-07-02T13:41:03;1.13;;;0.65;;
58685;SDS011;44465;53.206;-6.106;2023-07-02T13:43:28;1.60;;;0.68;;
58685;SDS011;44465;53.206;-6.106;2023-07-02T13:45:54;2.15;;;1.00;;
58685;SDS011;44465;53.206;-6.106;2023-07-02T13:48:19;1.65;;;0.80;;
58685;SDS011;44465;53.206;-6.106;2023-07-02T13:50:45;0.95;;;0.70;;
58685;SDS011;44465;53.206;-6.106;2023-07-02T13:53:10;1.33;;;0.65;;
58685;SDS011;44465;53.206;-6.106;2023-07-02T13:55:36;1.63;;;0.65;;
58685;SDS011;44465;53.206;-6.106;2023-07-02T13:58:01;1.05;;;0.60;;
58685;SDS011;44465;53.206;-6.106;2023-07-02T14:00:27;1.77;;;0.90;;
58685;SDS011;44465;53.206;-6.106;2023-07-02T14:02:53;1.08;;;0.73;;
58685;SDS011;44465;53.206;-6.106;2023-07-02T14:05:19;0.93;;;0.60;;
58685;SDS011;44465;53.206;-6.106;2023-07-02T14:07:45;2.10;;;0.70;;
58685;SDS011;44465;53.206;-6.106;2023-07-02T14:10:10;1.80;;;0.80;;
58685;SDS011;44465;53.206;-6.106;2023-07-02T14:12:40;2.22;;;0.60;;
58685;SDS011;44465;53.206;-6.106;2023-07-02T14:15:07;0.75;;;0.50;;
58685;SDS011;44465;53.206;-6.106;2023-07-02T14:17:33;1.73;;;1.00;;
58685;SDS011;44465;53.206;-6.106;2023-07-02T14:19:59;0.75;;;0.73;;
58685;SDS011;44465;53.206;-6.106;2023-07-02T14:22:25;0.90;;;0.60;;
58685;SDS011;44465;53.206;-6.106;2023-07-02T14:24:50;1.35;;;0.90;;
58685;SDS011;44465;53.206;-6.106;2023-07-02T14:27:16;1.02;;;0.75;;
58685;SDS011;44465;53.206;-6.106;2023-07-02T14:29:42;1.10;;;0.70;;
58685;SDS011;44465;53.206;-6.106;2023-07-02T14:32:07;1.17;;;0.60;;
58685;SDS011;44465;53.206;-6.106;2023-07-02T14:34:33;1.60;;;0.93;;
58685;SDS011;44465;53.206;-6.106;2023-07-02T14:36:58;3.28;;;1.10;;